createdAt,value
2023-03-30T00:00:47.385Z,99313.69
2023-03-30T00:02:54.037Z,99321.56
2023-03-30T00:05:03.554Z,99316.94
2023-03-30T00:07:06.609Z,99308.25
2023-03-30T00:09:09.786Z,99318.31
2023-03-30T00:11:15.779Z,99313.41
2023-03-30T00:13:18.392Z,99305.56
2023-03-30T00:15:22.829Z,99315.06
2023-03-30T00:17:26.255Z,99307.97
2023-03-30T00:19:28.821Z,99305.00
2023-03-30T00:21:31.436Z,99299.84
2023-03-30T00:23:34.297Z,99311.22
2023-03-30T00:25:37.085Z,99309.88
2023-03-30T00:27:40.853Z,99307.44
2023-03-30T00:29:43.382Z,99311.78
2023-03-30T00:31:45.967Z,99312.03
2023-03-30T00:33:48.626Z,99316.97
2023-03-30T00:35:55.887Z,99306.38
2023-03-30T00:38:03.537Z,99318.28
2023-03-30T00:40:09.780Z,99315.56
2023-03-30T00:42:17.209Z,99312.06
2023-03-30T00:44:57.111Z,99309.91
2023-03-30T00:46:59.788Z,99312.88
2023-03-30T00:49:06.637Z,99299.31
2023-03-30T00:51:12.435Z,99305.56
2023-03-30T00:53:24.987Z,99311.28
2023-03-30T00:55:29.766Z,99306.91
2023-03-30T00:57:34.065Z,99296.38
2023-03-30T00:59:36.792Z,99303.16
2023-03-30T01:01:42.014Z,99302.88
2023-03-30T01:03:48.281Z,99292.03
2023-03-30T01:05:52.427Z,99286.59
2023-03-30T01:07:58.172Z,99303.16
2023-03-30T01:10:01.955Z,99288.50
2023-03-30T01:12:06.787Z,99294.19
2023-03-30T01:14:12.287Z,99289.31
2023-03-30T01:16:52.699Z,99284.69
2023-03-30T01:19:23.580Z,99284.16
2023-03-30T01:21:55.783Z,99280.63
2023-03-30T01:24:20.382Z,99277.69
2023-03-30T01:26:51.192Z,99280.91
2023-03-30T01:28:58.609Z,99269.00
2023-03-30T01:31:45.775Z,99271.97
2023-03-30T01:34:07.364Z,99268.44
2023-03-30T01:36:21.712Z,99275.78
2023-03-30T01:38:45.519Z,99264.69
2023-03-30T01:41:26.741Z,99272.81
2023-03-30T01:43:47.115Z,99274.44
2023-03-30T01:46:01.766Z,99268.47
2023-03-30T01:48:26.413Z,99280.41
2023-03-30T01:50:38.376Z,99282.56
2023-03-30T01:52:53.933Z,99277.97
2023-03-30T01:55:10.784Z,99271.72
2023-03-30T01:57:20.392Z,99290.97
2023-03-30T01:59:38.108Z,99289.34
2023-03-30T02:01:43.393Z,99284.44
2023-03-30T02:03:53.649Z,99284.44
2023-03-30T02:06:19.333Z,99288.53
2023-03-30T02:08:27.710Z,99272.28
2023-03-30T02:10:33.690Z,99278.75
2023-03-30T02:12:37.477Z,99269.56
2023-03-30T02:14:41.970Z,99275.50
2023-03-30T02:16:52.072Z,99273.09
2023-03-30T02:18:55.569Z,99275.78
2023-03-30T02:20:59.526Z,99274.69
2023-03-30T02:23:03.761Z,99272.53
2023-03-30T02:25:06.781Z,99280.41
2023-03-30T02:27:10.137Z,99277.94
2023-03-30T02:29:14.081Z,99275.78
2023-03-30T02:31:17.585Z,99281.47
2023-03-30T02:33:46.980Z,99272.53
2023-03-30T02:35:56.562Z,99267.09
2023-03-30T02:38:39.958Z,99273.59
2023-03-30T02:41:14.056Z,99270.88
2023-03-30T02:43:37.568Z,99261.41
2023-03-30T02:45:53.824Z,99270.88
2023-03-30T02:48:20.849Z,99271.13
2023-03-30T02:50:34.321Z,99263.31
2023-03-30T02:52:52.689Z,99267.91
2023-03-30T02:55:38.440Z,99263.53
2023-03-30T02:57:40.922Z,99257.59
2023-03-30T02:59:58.133Z,99259.19
2023-03-30T03:02:09.795Z,99267.88
2023-03-30T03:04:15.702Z,99265.97
2023-03-30T03:06:20.635Z,99266.78
2023-03-30T03:08:25.166Z,99262.19
2023-03-30T03:10:27.696Z,99268.13
2023-03-30T03:12:30.285Z,99264.34
2023-03-30T03:14:33.089Z,99264.59
2023-03-30T03:16:36.275Z,99259.16
2023-03-30T03:18:42.268Z,99256.44
2023-03-30T03:20:45.454Z,99247.75
2023-03-30T03:22:48.038Z,99256.41
2023-03-30T03:24:50.580Z,99256.66
2023-03-30T03:26:53.201Z,99242.81
2023-03-30T03:28:55.789Z,99254.22
2023-03-30T03:31:00.064Z,99244.97
2023-03-30T03:33:02.720Z,99249.88
2023-03-30T03:35:05.704Z,99244.13
2023-03-30T03:37:08.475Z,99233.03
2023-03-30T03:39:11.035Z,99236.28
2023-03-30T03:41:13.698Z,99233.78
2023-03-30T03:43:16.705Z,99226.75
2023-03-30T03:45:19.266Z,99234.59
2023-03-30T03:47:23.325Z,99242.75
2023-03-30T03:49:26.092Z,99262.25
2023-03-30T03:51:29.518Z,99246.50
2023-03-30T03:53:32.541Z,99244.56
2023-03-30T03:55:35.520Z,99243.75
2023-03-30T03:57:38.779Z,99251.06
2023-03-30T03:59:41.410Z,99228.78
2023-03-30T04:01:43.977Z,99234.78
2023-03-30T04:03:46.702Z,99242.34
2023-03-30T04:05:49.811Z,99239.06
2023-03-30T04:07:53.750Z,99240.94
2023-03-30T04:09:56.281Z,99242.59
2023-03-30T04:11:59.044Z,99241.75
2023-03-30T04:14:01.785Z,99236.84
2023-03-30T04:16:04.901Z,99241.69
2023-03-30T04:18:08.919Z,99244.38
2023-03-30T04:20:12.515Z,99246.81
2023-03-30T04:22:15.051Z,99249.22
2023-03-30T04:24:18.143Z,99250.28
2023-03-30T04:26:20.776Z,99256.50
2023-03-30T04:28:24.787Z,99249.13
2023-03-30T04:30:30.728Z,99258.06
2023-03-30T04:32:35.149Z,99253.38
2023-03-30T04:34:37.798Z,99260.72
2023-03-30T04:36:43.529Z,99262.81
2023-03-30T04:38:59.891Z,99259.53
2023-03-30T04:41:02.658Z,99265.97
2023-03-30T04:43:05.484Z,99255.56
2023-03-30T04:45:10.200Z,99253.31
2023-03-30T04:47:12.809Z,99266.28
2023-03-30T04:49:15.967Z,99252.41
2023-03-30T04:51:18.611Z,99252.63
2023-03-30T04:53:23.227Z,99258.81
2023-03-30T04:55:25.788Z,99255.69
2023-03-30T04:57:28.499Z,99260.47
2023-03-30T04:59:31.107Z,99262.06
2023-03-30T05:01:33.861Z,99251.03
2023-03-30T05:03:37.064Z,99249.63
2023-03-30T05:05:39.738Z,99256.06
2023-03-30T05:07:42.348Z,99256.91
2023-03-30T05:09:45.022Z,99259.13
2023-03-30T05:11:47.744Z,99252.88
2023-03-30T05:13:54.414Z,99249.91
2023-03-30T05:15:57.697Z,99253.22
2023-03-30T05:18:00.717Z,99240.41
2023-03-30T05:20:08.486Z,99244.69
2023-03-30T05:22:11.323Z,99239.75
2023-03-30T05:24:15.086Z,99239.72
2023-03-30T05:26:17.759Z,99248.31
2023-03-30T05:28:21.086Z,99243.91
2023-03-30T05:30:23.746Z,99245.97
2023-03-30T05:32:26.840Z,99239.88
2023-03-30T05:34:29.435Z,99235.91
2023-03-30T05:36:32.154Z,99240.38
2023-03-30T05:38:35.260Z,99224.91
2023-03-30T05:40:38.209Z,99233.59
2023-03-30T05:42:40.821Z,99227.28
2023-03-30T05:44:43.458Z,99232.94
2023-03-30T05:46:47.270Z,99221.44
2023-03-30T05:48:50.399Z,99219.66
2023-03-30T05:50:52.975Z,99224.69
2023-03-30T05:52:55.607Z,99226.94
2023-03-30T05:54:58.321Z,99217.16
2023-03-30T05:57:01.138Z,99222.66
2023-03-30T05:59:05.376Z,99231.59
2023-03-30T06:01:09.573Z,99220.88
2023-03-30T06:03:13.537Z,99216.44
2023-03-30T06:05:16.479Z,99218.28
2023-03-30T06:07:20.948Z,99222.44
2023-03-30T06:09:24.323Z,99233.97
2023-03-30T06:11:28.434Z,99223.41
2023-03-30T06:13:31.969Z,99224.78
2023-03-30T06:15:34.618Z,99218.03
2023-03-30T06:17:37.307Z,99221.38
2023-03-30T06:19:39.961Z,99223.19
2023-03-30T06:21:43.038Z,99222.78
2023-03-30T06:23:45.591Z,99221.03
2023-03-30T06:25:52.808Z,99225.47
2023-03-30T06:27:56.129Z,99214.47
2023-03-30T06:29:59.152Z,99219.22
2023-03-30T06:32:03.980Z,99221.81
2023-03-30T06:34:06.878Z,99229.22
2023-03-30T06:36:14.525Z,99219.09
2023-03-30T06:38:19.238Z,99211.41
2023-03-30T06:40:21.782Z,99219.19
2023-03-30T06:42:28.177Z,99222.13
2023-03-30T06:44:31.381Z,99212.63
2023-03-30T06:46:34.757Z,99222.72
2023-03-30T06:48:37.587Z,99216.03
2023-03-30T06:50:41.181Z,99216.22
2023-03-30T06:52:43.929Z,99222.31
2023-03-30T06:54:46.913Z,99221.69
2023-03-30T06:56:50.162Z,99207.22
2023-03-30T06:58:53.080Z,99234.28
2023-03-30T07:00:55.905Z,99219.59
2023-03-30T07:03:02.623Z,99208.38
2023-03-30T07:05:12.645Z,99215.94
2023-03-30T07:07:15.234Z,99206.94
2023-03-30T07:09:18.598Z,99200.25
2023-03-30T07:11:22.520Z,99199.25
2023-03-30T07:13:25.160Z,99207.03
2023-03-30T07:15:28.185Z,99194.13
2023-03-30T07:17:31.641Z,99193.66
2023-03-30T07:19:34.323Z,99191.22
2023-03-30T07:21:37.254Z,99205.44
2023-03-30T07:23:40.588Z,99197.91
2023-03-30T07:25:45.116Z,99199.59
2023-03-30T07:27:48.001Z,99199.31
2023-03-30T07:29:51.595Z,99196.66
2023-03-30T07:31:56.925Z,99202.78
2023-03-30T07:33:59.917Z,99199.16
2023-03-30T07:36:03.442Z,99200.78
2023-03-30T07:38:06.064Z,99201.94
2023-03-30T07:40:09.499Z,99200.03
2023-03-30T07:42:12.406Z,99199.41
2023-03-30T07:44:15.221Z,99211.47
2023-03-30T07:46:17.896Z,99202.16
2023-03-30T07:48:20.519Z,99198.97
2023-03-30T07:50:25.716Z,99206.72
2023-03-30T07:52:28.897Z,99197.53
2023-03-30T07:54:32.608Z,99194.97
2023-03-30T07:56:38.719Z,99200.28
2023-03-30T07:58:41.496Z,99190.13
2023-03-30T08:00:45.039Z,99207.56
2023-03-30T08:02:47.968Z,99199.66
2023-03-30T08:04:50.754Z,99193.72
2023-03-30T08:06:53.877Z,99187.75
2023-03-30T08:08:56.837Z,99192.63
2023-03-30T08:10:59.989Z,99194.53
2023-03-30T08:13:02.695Z,99181.78
2023-03-30T08:15:05.824Z,99179.53
2023-03-30T08:17:08.618Z,99192.59
2023-03-30T08:19:12.143Z,99185.03
2023-03-30T08:21:14.922Z,99179.53
2023-03-30T08:23:17.807Z,99183.41
2023-03-30T08:25:21.040Z,99189.19
2023-03-30T08:27:23.780Z,99177.59
2023-03-30T08:29:26.406Z,99174.03
2023-03-30T08:31:32.925Z,99175.00
2023-03-30T08:33:36.030Z,99182.59
2023-03-30T08:35:39.572Z,99174.84
2023-03-30T08:37:48.115Z,99176.63
2023-03-30T08:39:56.132Z,99168.72
2023-03-30T08:42:37.084Z,99165.81
2023-03-30T08:44:43.377Z,99167.59
2023-03-30T08:46:47.704Z,99165.34
2023-03-30T08:48:52.540Z,99168.88
2023-03-30T08:50:59.603Z,99166.63
2023-03-30T08:53:06.641Z,99157.25
2023-03-30T08:55:28.588Z,99161.28
2023-03-30T08:57:37.242Z,99158.34
2023-03-30T08:59:55.251Z,99156.25
2023-03-30T09:02:04.484Z,99153.63
2023-03-30T09:04:35.056Z,99143.63
2023-03-30T09:06:46.119Z,99144.25
2023-03-30T09:08:49.617Z,99140.56
2023-03-30T09:11:01.368Z,99139.88
2023-03-30T09:13:06.774Z,99129.03
2023-03-30T09:15:45.980Z,99130.50
2023-03-30T09:17:51.704Z,99131.00
2023-03-30T09:19:57.855Z,99132.47
2023-03-30T09:22:06.236Z,99123.94
2023-03-30T09:24:27.697Z,99122.16
2023-03-30T09:26:44.769Z,99125.72
2023-03-30T09:29:24.947Z,99121.53
2023-03-30T09:31:32.651Z,99117.84
2023-03-30T09:33:55.080Z,99127.34
2023-03-30T09:36:19.414Z,99120.13
2023-03-30T09:38:25.502Z,99114.97
2023-03-30T09:41:06.768Z,99113.34
2023-03-30T09:43:32.357Z,99118.97
2023-03-30T09:45:36.290Z,99115.38
2023-03-30T09:47:40.050Z,99109.41
2023-03-30T09:49:42.865Z,99109.66
2023-03-30T09:52:02.639Z,99116.47
2023-03-30T09:54:07.235Z,99110.72
2023-03-30T09:56:40.228Z,99111.25
2023-03-30T09:58:44.316Z,99104.56
2023-03-30T10:01:00.978Z,99122.19
2023-03-30T10:03:06.929Z,99112.22
2023-03-30T10:05:18.073Z,99113.69
2023-03-30T10:07:37.320Z,99102.94
2023-03-30T10:09:44.795Z,99104.00
2023-03-30T10:11:52.115Z,99092.47
2023-03-30T10:13:54.784Z,99088.47
2023-03-30T10:16:06.114Z,99093.66
2023-03-30T10:18:26.856Z,99097.47
2023-03-30T10:20:39.148Z,99101.34
2023-03-30T10:22:51.845Z,99094.22
2023-03-30T10:24:57.174Z,99108.31
2023-03-30T10:27:10.148Z,99111.03
2023-03-30T10:29:17.154Z,99107.97
2023-03-30T10:31:20.584Z,99101.88
2023-03-30T10:33:24.083Z,99095.69
2023-03-30T10:35:32.898Z,99097.66
2023-03-30T10:37:42.950Z,99086.78
2023-03-30T10:39:48.281Z,99100.41
2023-03-30T10:41:52.198Z,99078.28
2023-03-30T10:43:54.846Z,99095.38
2023-03-30T10:46:09.022Z,99086.28
2023-03-30T10:48:59.328Z,99077.97
2023-03-30T10:51:24.620Z,99076.78
2023-03-30T10:53:59.945Z,99075.25
2023-03-30T10:56:23.691Z,99060.91
2023-03-30T10:59:17.825Z,99062.75
2023-03-30T11:01:20.888Z,99056.50
2023-03-30T11:03:29.657Z,99043.19
2023-03-30T11:05:38.869Z,99054.81
2023-03-30T11:07:43.464Z,99055.06
2023-03-30T11:09:53.680Z,99049.56
2023-03-30T11:12:05.654Z,99037.84
2023-03-30T11:14:19.611Z,99053.69
2023-03-30T11:16:31.721Z,99046.28
2023-03-30T11:18:49.378Z,99041.66
2023-03-30T11:21:05.420Z,99048.63
2023-03-30T11:23:39.830Z,99030.94
2023-03-30T11:26:04.490Z,99042.44
2023-03-30T11:28:26.312Z,99035.97
2023-03-30T11:30:30.125Z,99033.72
2023-03-30T11:32:49.388Z,99031.84
2023-03-30T11:35:03.708Z,99028.81
2023-03-30T11:37:35.597Z,99022.72
2023-03-30T11:39:45.754Z,99026.75
2023-03-30T11:41:59.779Z,99019.69
2023-03-30T11:44:03.183Z,99019.34
2023-03-30T11:46:08.995Z,99018.66
2023-03-30T11:48:41.307Z,99012.38
2023-03-30T11:51:08.720Z,99018.81
2023-03-30T11:53:29.016Z,99005.09
2023-03-30T11:55:46.589Z,99000.56
2023-03-30T11:57:52.159Z,99002.31
2023-03-30T11:59:56.522Z,99001.97
2023-03-30T12:02:20.745Z,98987.25
2023-03-30T12:04:31.641Z,98988.72
2023-03-30T12:06:41.383Z,98985.97
2023-03-30T12:09:11.173Z,98979.34
2023-03-30T12:11:37.680Z,98979.84
2023-03-30T12:13:50.628Z,98973.66
2023-03-30T12:16:14.069Z,98975.09
2023-03-30T12:18:16.777Z,98969.75
2023-03-30T12:20:35.152Z,98976.25
2023-03-30T12:22:57.672Z,98965.88
2023-03-30T12:25:26.382Z,98963.25
2023-03-30T12:27:31.483Z,98960.63
2023-03-30T12:32:04.863Z,98967.50
2023-03-30T12:34:07.906Z,98950.66
2023-03-30T12:36:38.217Z,98973.09
2023-03-30T12:38:46.728Z,98960.03
2023-03-30T12:41:02.894Z,98958.63
2023-03-30T12:43:19.577Z,98966.56
2023-03-30T12:45:34.592Z,98950.56
2023-03-30T12:47:47.258Z,98933.75
2023-03-30T12:50:13.587Z,98947.50
2023-03-30T12:52:51.715Z,98938.94
2023-03-30T12:55:01.941Z,98942.00
2023-03-30T12:57:27.349Z,98934.88
2023-03-30T12:59:49.967Z,98936.84
2023-03-30T13:02:36.958Z,98931.81
2023-03-30T13:04:44.285Z,98932.00
2023-03-30T13:06:54.297Z,98910.06
2023-03-30T13:09:24.028Z,98906.50
2023-03-30T13:11:26.640Z,98922.63
2023-03-30T13:13:47.754Z,98928.59
2023-03-30T13:15:54.930Z,98935.91
2023-03-30T13:18:23.609Z,98927.06
2023-03-30T13:20:47.970Z,98931.59
2023-03-30T13:23:01.284Z,98938.06
2023-03-30T13:25:12.804Z,98932.31
2023-03-30T13:27:18.054Z,98929.56
2023-03-30T13:29:24.049Z,98917.00
2023-03-30T13:31:44.556Z,98922.69
2023-03-30T13:33:56.557Z,98919.25
2023-03-30T13:36:02.020Z,98917.31
2023-03-30T13:38:38.275Z,98895.56
2023-03-30T13:43:23.737Z,98901.19
2023-03-30T13:45:32.655Z,98886.06
2023-03-30T13:47:44.733Z,98894.28
2023-03-30T13:50:03.648Z,98911.41
2023-03-30T13:52:13.886Z,98905.09
2023-03-30T13:54:24.884Z,98900.97
2023-03-30T13:56:32.395Z,98895.31
2023-03-30T13:58:36.417Z,98899.03
2023-03-30T14:01:05.916Z,98893.53
2023-03-30T14:03:33.994Z,98896.75
2023-03-30T14:05:38.902Z,98889.50
2023-03-30T14:07:46.580Z,98902.56
2023-03-30T14:10:14.612Z,98895.16
2023-03-30T14:12:22.280Z,98887.25
2023-03-30T14:14:37.503Z,98901.63
2023-03-30T14:16:41.228Z,98906.97
2023-03-30T14:18:44.024Z,98910.38
2023-03-30T14:20:56.511Z,98924.91
2023-03-30T14:23:00.711Z,98926.69
2023-03-30T14:25:07.017Z,98940.25
2023-03-30T14:27:14.752Z,98937.16
2023-03-30T14:29:30.318Z,98939.59
2023-03-30T14:31:42.066Z,98932.03
2023-03-30T14:33:45.186Z,98927.84
2023-03-30T14:35:50.244Z,98933.66
2023-03-30T14:37:53.657Z,98931.59
2023-03-30T14:39:57.586Z,98929.81
2023-03-30T14:42:18.926Z,98921.63
2023-03-30T14:44:23.653Z,98929.41
2023-03-30T14:46:32.646Z,98926.19
2023-03-30T14:48:43.310Z,98937.66
2023-03-30T14:50:46.787Z,98938.16
2023-03-30T14:52:50.642Z,98931.06
2023-03-30T14:55:06.636Z,98932.97
2023-03-30T14:57:12.787Z,98947.03
2023-03-30T14:59:18.793Z,98943.16
2023-03-30T15:01:32.396Z,98944.00
2023-03-30T15:03:37.483Z,98950.13
2023-03-30T15:05:43.470Z,98956.41
2023-03-30T15:07:50.982Z,98954.97
2023-03-30T15:09:59.056Z,98955.94
2023-03-30T15:12:05.128Z,98953.06
2023-03-30T15:14:42.732Z,98956.09
2023-03-30T15:17:12.931Z,98949.34
2023-03-30T15:19:33.850Z,98951.44
2023-03-30T15:21:46.763Z,98947.75
2023-03-30T15:24:17.165Z,98946.59
2023-03-30T15:26:29.248Z,98955.47
2023-03-30T15:28:43.531Z,98944.19
2023-03-30T15:30:51.351Z,98955.47
2023-03-30T15:32:57.961Z,98958.06
2023-03-30T15:35:23.355Z,98963.38
2023-03-30T15:37:25.929Z,98953.56
2023-03-30T15:39:34.152Z,98962.25
2023-03-30T15:42:01.955Z,98975.13
2023-03-30T15:44:12.385Z,98955.97
2023-03-30T15:46:16.512Z,98968.22
2023-03-30T15:48:33.808Z,98962.41
2023-03-30T15:50:37.333Z,98969.47
2023-03-30T15:52:44.810Z,98963.38
2023-03-30T15:54:55.524Z,98956.75
2023-03-30T15:57:13.441Z,98968.03
2023-03-30T15:59:20.993Z,98959.34
2023-03-30T16:01:23.699Z,98957.19
2023-03-30T16:03:40.475Z,98956.41
2023-03-30T16:05:45.460Z,98956.22
2023-03-30T16:07:48.650Z,98965.25
2023-03-30T16:09:51.821Z,98962.34
2023-03-30T16:11:54.529Z,98955.28
2023-03-30T16:13:59.108Z,98958.31
2023-03-30T16:16:01.864Z,98962.81
2023-03-30T16:18:04.619Z,98961.72
2023-03-30T16:20:25.833Z,98958.97
2023-03-30T16:22:28.407Z,98955.91
2023-03-30T16:24:31.039Z,98970.38
2023-03-30T16:26:34.059Z,98956.53
2023-03-30T16:28:36.788Z,98957.66
2023-03-30T16:30:41.019Z,98950.09
2023-03-30T16:32:43.822Z,98955.09
2023-03-30T16:34:46.524Z,98952.84
2023-03-30T16:36:50.367Z,98948.31
2023-03-30T16:38:52.999Z,98951.06
2023-03-30T16:40:58.816Z,98943.16
2023-03-30T16:43:01.889Z,98949.44
2023-03-30T16:45:04.962Z,98959.88
2023-03-30T16:47:09.104Z,98962.63
2023-03-30T16:49:23.412Z,98959.22
2023-03-30T16:51:26.249Z,98956.00
2023-03-30T16:53:28.905Z,98956.66
2023-03-30T16:55:31.978Z,98957.44
2023-03-30T16:57:34.725Z,98963.56
2023-03-30T16:59:37.778Z,98959.03
2023-03-30T17:01:40.467Z,98965.13
2023-03-30T17:03:43.154Z,98960.63
2023-03-30T17:05:48.616Z,98950.66
2023-03-30T17:07:55.198Z,98963.19
2023-03-30T17:09:58.204Z,98963.81
2023-03-30T17:12:00.887Z,98971.84
2023-03-30T17:14:03.598Z,98961.69
2023-03-30T17:16:06.807Z,98963.13
2023-03-30T17:18:20.680Z,98963.75
2023-03-30T17:20:33.303Z,98957.47
2023-03-30T17:22:35.903Z,98950.72
2023-03-30T17:24:38.549Z,98946.84
2023-03-30T17:26:41.445Z,98950.56
2023-03-30T17:28:44.476Z,98964.88
2023-03-30T17:30:47.231Z,98951.22
2023-03-30T17:32:50.486Z,98957.47
2023-03-30T17:34:53.106Z,98955.03
2023-03-30T17:36:55.695Z,98964.25
2023-03-30T17:38:59.791Z,98955.09
2023-03-30T17:41:02.983Z,98940.78
2023-03-30T17:43:11.015Z,98964.09
2023-03-30T17:45:16.045Z,98957.38
2023-03-30T17:47:18.647Z,98960.09
2023-03-30T17:49:21.302Z,98946.25
2023-03-30T17:51:23.961Z,98948.03
2023-03-30T17:53:26.825Z,98943.06
2023-03-30T17:55:31.497Z,98949.50
2023-03-30T17:57:34.107Z,98957.22
2023-03-30T17:59:36.716Z,98949.03
2023-03-30T18:01:40.194Z,98957.06
2023-03-30T18:03:44.944Z,98950.75
2023-03-30T18:05:48.931Z,98956.22
2023-03-30T18:07:52.248Z,98954.13
2023-03-30T18:09:54.833Z,98962.03
2023-03-30T18:11:57.593Z,98963.16
2023-03-30T18:14:00.245Z,98973.94
2023-03-30T18:16:02.981Z,98961.34
2023-03-30T18:18:05.777Z,98961.84
2023-03-30T18:20:22.304Z,98969.75
2023-03-30T18:22:24.881Z,98958.97
2023-03-30T18:24:27.782Z,98957.53
2023-03-30T18:26:31.470Z,98956.53
2023-03-30T18:28:34.265Z,98959.25
2023-03-30T18:30:38.400Z,98953.78
2023-03-30T18:32:46.991Z,98949.13
2023-03-30T18:34:50.195Z,98949.28
2023-03-30T18:36:52.776Z,98946.09
2023-03-30T18:38:55.982Z,98931.91
2023-03-30T18:40:58.671Z,98950.88
2023-03-30T18:43:01.700Z,98937.03
2023-03-30T18:45:04.963Z,98939.47
2023-03-30T18:47:09.502Z,98937.19
2023-03-30T18:49:15.550Z,98932.34
2023-03-30T18:51:19.421Z,98925.22
2023-03-30T18:53:27.382Z,98928.16
2023-03-30T18:55:32.191Z,98929.09
2023-03-30T18:57:35.196Z,98929.09
2023-03-30T18:59:39.794Z,98921.69
2023-03-30T19:01:46.143Z,98916.88
2023-03-30T19:03:49.730Z,98922.47
2023-03-30T19:05:52.501Z,98923.22
2023-03-30T19:07:56.015Z,98919.38
2023-03-30T19:09:58.712Z,98930.13
2023-03-30T19:12:01.268Z,98921.25
2023-03-30T19:14:04.739Z,98919.13
2023-03-30T19:16:09.296Z,98903.38
2023-03-30T19:18:14.276Z,98910.28
2023-03-30T19:20:17.989Z,98908.28
2023-03-30T19:22:20.641Z,98917.91
2023-03-30T19:24:23.260Z,98915.94
2023-03-30T19:26:26.356Z,98919.78
2023-03-30T19:28:29.014Z,98919.59
2023-03-30T19:30:38.345Z,98921.53
2023-03-30T19:32:43.400Z,98925.38
2023-03-30T19:34:46.683Z,98922.63
2023-03-30T19:36:49.252Z,98922.63
2023-03-30T19:38:51.841Z,98921.53
2023-03-30T19:40:59.220Z,98918.44
2023-03-30T19:43:01.817Z,98923.91
2023-03-30T19:45:05.746Z,98914.56
2023-03-30T19:47:08.240Z,98916.22
2023-03-30T19:49:11.031Z,98918.44
2023-03-30T19:51:13.682Z,98909.75
2023-03-30T19:53:17.588Z,98913.13
2023-03-30T19:55:21.095Z,98909.88
2023-03-30T19:57:23.936Z,98902.78
2023-03-30T19:59:28.923Z,98906.31
2023-03-30T20:01:31.542Z,98897.16
2023-03-30T20:03:35.503Z,98898.97
2023-03-30T20:05:38.960Z,98888.16
2023-03-30T20:07:43.940Z,98903.59
2023-03-30T20:09:46.802Z,98899.41
2023-03-30T20:11:49.420Z,98884.06
2023-03-30T20:13:54.089Z,98895.09
2023-03-30T20:15:57.052Z,98890.13
2023-03-30T20:18:00.173Z,98890.75
2023-03-30T20:20:07.296Z,98880.84
2023-03-30T20:22:09.991Z,98881.78
2023-03-30T20:24:12.587Z,98880.47
2023-03-30T20:26:19.563Z,98885.50
2023-03-30T20:28:22.129Z,98896.72
2023-03-30T20:30:24.853Z,98878.34
2023-03-30T20:32:27.748Z,98884.28
2023-03-30T20:34:31.738Z,98894.72
2023-03-30T20:36:34.472Z,98892.91
2023-03-30T20:38:39.808Z,98902.44
2023-03-30T20:40:42.591Z,98911.72
2023-03-30T20:42:48.228Z,98900.78
2023-03-30T20:44:50.851Z,98907.88
2023-03-30T20:46:58.131Z,98918.09
2023-03-30T20:49:02.296Z,98920.81
2023-03-30T20:51:06.857Z,98923.75
2023-03-30T20:53:09.629Z,98918.28
2023-03-30T20:55:12.845Z,98899.31
2023-03-30T20:57:15.881Z,98893.75
2023-03-30T20:59:18.499Z,98902.72
2023-03-30T21:01:27.389Z,98906.38
2023-03-30T21:03:30.040Z,98910.22
2023-03-30T21:05:32.688Z,98906.38
2023-03-30T21:07:38.535Z,98914.06
2023-03-30T21:09:41.642Z,98910.03
2023-03-30T21:11:44.933Z,98912.75
2023-03-30T21:13:49.453Z,98902.09
2023-03-30T21:15:59.700Z,98920.72
2023-03-30T21:18:02.304Z,98906.63
2023-03-30T21:20:08.338Z,98911.75
2023-03-30T21:22:11.205Z,98906.91
2023-03-30T21:24:13.919Z,98908.34
2023-03-30T21:26:18.744Z,98898.84
2023-03-30T21:28:21.621Z,98892.59
2023-03-30T21:30:24.260Z,98895.63
2023-03-30T21:32:28.678Z,98897.53
2023-03-30T21:34:32.845Z,98902.00
2023-03-30T21:36:35.634Z,98892.69
2023-03-30T21:38:38.492Z,98894.31
2023-03-30T21:40:41.085Z,98901.38
2023-03-30T21:42:43.669Z,98889.66
2023-03-30T21:44:46.312Z,98895.63
2023-03-30T21:46:48.964Z,98895.91
2023-03-30T21:48:54.004Z,98891.09
2023-03-30T21:51:05.463Z,98875.13
2023-03-30T21:53:08.020Z,98891.72
2023-03-30T21:55:10.667Z,98891.72
2023-03-30T21:57:13.383Z,98883.53
2023-03-30T21:59:16.022Z,98878.75
2023-03-30T22:01:20.149Z,98879.25
2023-03-30T22:03:23.420Z,98878.88
2023-03-30T22:05:26.436Z,98875.94
2023-03-30T22:07:28.998Z,98876.75
2023-03-30T22:09:31.619Z,98871.88
2023-03-30T22:11:34.500Z,98888.97
2023-03-30T22:13:37.090Z,98886.53
2023-03-30T22:15:39.726Z,98884.94
2023-03-30T22:17:42.316Z,98889.97
2023-03-30T22:19:44.919Z,98887.34
2023-03-30T22:21:48.162Z,98897.75
2023-03-30T22:23:51.304Z,98884.13
2023-03-30T22:25:53.965Z,98890.66
2023-03-30T22:27:58.041Z,98886.31
2023-03-30T22:30:01.366Z,98882.59
2023-03-30T22:32:04.949Z,98877.66
2023-03-30T22:34:08.218Z,98877.94
2023-03-30T22:36:17.464Z,98865.53
2023-03-30T22:38:20.883Z,98854.88
2023-03-30T22:40:23.511Z,98869.38
2023-03-30T22:42:26.170Z,98867.88
2023-03-30T22:44:28.751Z,98866.78
2023-03-30T22:46:31.417Z,98868.06
2023-03-30T22:48:35.788Z,98869.78
2023-03-30T22:50:38.570Z,98867.19
2023-03-30T22:52:41.428Z,98861.22
2023-03-30T22:54:44.213Z,98854.47
2023-03-30T22:56:46.881Z,98856.06
2023-03-30T22:58:49.446Z,98865.16
2023-03-30T23:00:53.174Z,98859.25
2023-03-30T23:02:55.896Z,98877.81
2023-03-30T23:04:58.514Z,98869.94
2023-03-30T23:07:04.336Z,98869.13
2023-03-30T23:09:07.123Z,98858.63
2023-03-30T23:11:09.912Z,98867.09
2023-03-30T23:13:12.491Z,98858.75
2023-03-30T23:15:15.216Z,98863.88
2023-03-30T23:17:18.465Z,98862.56
2023-03-30T23:19:21.718Z,98854.38
2023-03-30T23:21:24.335Z,98857.84
2023-03-30T23:23:27.182Z,98851.06
2023-03-30T23:25:29.765Z,98848.03
2023-03-30T23:27:32.756Z,98837.25
2023-03-30T23:29:35.404Z,98837.25
2023-03-30T23:31:38.994Z,98847.03
2023-03-30T23:33:42.747Z,98846.53
2023-03-30T23:35:49.974Z,98847.22
2023-03-30T23:37:52.859Z,98839.38
2023-03-30T23:39:55.619Z,98842.28
2023-03-30T23:41:58.295Z,98837.13
2023-03-30T23:44:01.274Z,98845.63
2023-03-30T23:46:04.852Z,98832.50
2023-03-30T23:48:07.794Z,98833.94
2023-03-30T23:50:10.662Z,98825.44
2023-03-30T23:52:13.727Z,98835.75
2023-03-30T23:54:17.900Z,98834.53
2023-03-30T23:56:21.425Z,98836.94
2023-03-30T23:58:24.397Z,98836.75
